createdAt,value
2017-05-30T00:00:14.446Z,0
2017-05-30T00:01:14.451Z,0
2017-05-30T00:02:14.147Z,0
2017-05-30T00:03:14.150Z,0
2017-05-30T00:04:13.834Z,0
2017-05-30T00:05:14.453Z,0
2017-05-30T00:06:14.446Z,0
2017-05-30T00:07:13.834Z,0
2017-05-30T00:08:13.542Z,0
2017-05-30T00:09:14.453Z,0
2017-05-30T00:10:14.141Z,0
2017-05-30T00:11:13.533Z,0
2017-05-30T00:12:13.839Z,0
2017-05-30T00:13:14.149Z,0
2017-05-30T00:14:14.455Z,0
2017-05-30T00:15:13.891Z,0
2017-05-30T00:16:14.148Z,0
2017-05-30T00:17:14.142Z,0
2017-05-30T00:18:14.144Z,0
2017-05-30T00:19:14.145Z,0
2017-05-30T00:20:13.224Z,0
2017-05-30T00:21:14.451Z,0
2017-05-30T00:22:13.838Z,0
2017-05-30T00:23:14.142Z,0
2017-05-30T00:24:14.142Z,0
2017-05-30T00:25:13.532Z,0
2017-05-30T00:26:13.837Z,0
2017-05-30T00:27:14.139Z,0
2017-05-30T00:28:13.837Z,0
2017-05-30T00:29:13.842Z,0
2017-05-30T00:30:14.192Z,0
2017-05-30T00:31:14.455Z,0
2017-05-30T00:32:14.139Z,0
2017-05-30T00:33:14.144Z,0
2017-05-30T00:34:14.450Z,0
2017-05-30T00:35:14.455Z,0
2017-05-30T00:36:14.152Z,0
2017-05-30T00:37:13.838Z,0
2017-05-30T00:38:13.837Z,0
2017-05-30T00:39:14.142Z,0
2017-05-30T00:40:14.143Z,0
2017-05-30T00:41:14.145Z,0
2017-05-30T00:42:14.144Z,0
2017-05-30T00:43:14.143Z,0
2017-05-30T00:44:14.452Z,0
2017-05-30T00:45:14.190Z,0
2017-05-30T00:46:14.142Z,0
2017-05-30T00:47:14.138Z,0
2017-05-30T00:48:14.138Z,0
2017-05-30T00:49:14.443Z,0
2017-05-30T00:50:14.133Z,0
2017-05-30T00:51:14.440Z,0
2017-05-30T00:52:14.444Z,0
2017-05-30T00:53:14.439Z,0
2017-05-30T00:54:13.520Z,0
2017-05-30T00:55:13.833Z,0
2017-05-30T00:56:14.442Z,0
2017-05-30T00:57:14.444Z,0
2017-05-30T00:58:14.438Z,0
2017-05-30T00:59:14.439Z,0
2017-05-30T01:00:14.136Z,0
2017-05-30T01:01:14.134Z,0
2017-05-30T01:02:14.444Z,0
2017-05-30T01:03:14.445Z,0
2017-05-30T01:04:14.134Z,0
2017-05-30T01:05:14.440Z,0
2017-05-30T01:06:14.494Z,0
2017-05-30T01:07:13.519Z,0
2017-05-30T01:08:14.133Z,0
2017-05-30T01:09:14.438Z,0
2017-05-30T01:10:14.136Z,0
2017-05-30T01:11:14.442Z,0
2017-05-30T01:12:14.133Z,0
2017-05-30T01:13:14.139Z,0
2017-05-30T01:14:14.439Z,0
2017-05-30T01:15:14.437Z,0
2017-05-30T01:16:14.135Z,0
2017-05-30T01:17:14.438Z,0
2017-05-30T01:18:14.436Z,0
2017-05-30T01:19:14.135Z,0
2017-05-30T01:20:13.525Z,0
2017-05-30T01:21:13.877Z,0
2017-05-30T01:22:14.438Z,0
2017-05-30T01:23:14.138Z,0
2017-05-30T01:24:14.137Z,0
2017-05-30T01:25:14.130Z,0
2017-05-30T01:26:14.131Z,0
2017-05-30T01:27:14.436Z,0
2017-05-30T01:28:14.136Z,0
2017-05-30T01:29:13.828Z,0
2017-05-30T01:30:13.826Z,0
2017-05-30T01:31:14.439Z,0
2017-05-30T01:32:13.211Z,0
2017-05-30T01:33:14.436Z,0
2017-05-30T01:34:14.355Z,0
2017-05-30T01:35:14.128Z,0
2017-05-30T01:36:14.487Z,0
2017-05-30T01:37:14.435Z,0
2017-05-30T01:38:14.435Z,0
2017-05-30T01:39:14.433Z,0
2017-05-30T01:40:14.436Z,0
2017-05-30T01:41:14.438Z,0
2017-05-30T01:42:14.431Z,0
2017-05-30T01:43:14.435Z,0
2017-05-30T01:44:13.820Z,0
2017-05-30T01:45:14.433Z,0
2017-05-30T01:46:13.874Z,0
2017-05-30T01:47:14.431Z,0
2017-05-30T01:48:14.438Z,0
2017-05-30T01:49:14.428Z,0
2017-05-30T01:50:13.819Z,0
2017-05-30T01:51:14.435Z,0
2017-05-30T01:52:14.433Z,0
2017-05-30T01:53:14.433Z,0
2017-05-30T01:54:14.133Z,0
2017-05-30T01:55:14.128Z,0
2017-05-30T01:56:14.490Z,0
2017-05-30T01:57:13.516Z,0
2017-05-30T01:58:14.435Z,0
2017-05-30T01:59:14.431Z,0
2017-05-30T02:00:13.827Z,0
2017-05-30T02:01:14.509Z,0
2017-05-30T02:02:14.123Z,0
2017-05-30T02:03:14.429Z,0
2017-05-30T02:04:14.426Z,0
2017-05-30T02:05:14.431Z,0
2017-05-30T02:06:14.122Z,0
2017-05-30T02:07:14.427Z,0
2017-05-30T02:08:14.120Z,0
2017-05-30T02:09:14.119Z,0
2017-05-30T02:10:14.115Z,0
2017-05-30T02:11:13.814Z,0
2017-05-30T02:12:14.422Z,0
2017-05-30T02:13:14.118Z,0
2017-05-30T02:14:13.811Z,0
2017-05-30T02:15:14.425Z,0
2017-05-30T02:16:14.169Z,0
2017-05-30T02:17:14.429Z,0
2017-05-30T02:18:14.135Z,0
2017-05-30T02:19:14.425Z,0
2017-05-30T02:20:14.117Z,0
2017-05-30T02:21:14.114Z,0
2017-05-30T02:22:14.119Z,0
2017-05-30T02:23:14.114Z,0
2017-05-30T02:24:14.419Z,0
2017-05-30T02:25:14.118Z,0
2017-05-30T02:26:14.119Z,0
2017-05-30T02:27:14.423Z,0
2017-05-30T02:28:14.422Z,0
2017-05-30T02:29:14.115Z,0
2017-05-30T02:30:13.811Z,0
2017-05-30T02:31:14.226Z,0
2017-05-30T02:32:13.813Z,0
2017-05-30T02:33:14.419Z,0
2017-05-30T02:34:14.118Z,0
2017-05-30T02:35:14.422Z,0
2017-05-30T02:36:14.112Z,0
2017-05-30T02:37:13.810Z,0
2017-05-30T02:38:14.420Z,0
2017-05-30T02:39:14.419Z,0
2017-05-30T02:40:14.122Z,0
2017-05-30T02:41:14.121Z,0
2017-05-30T02:42:14.131Z,0
2017-05-30T02:43:14.112Z,0
2017-05-30T02:44:14.111Z,0
2017-05-30T02:45:14.123Z,0
2017-05-30T02:46:13.806Z,0
2017-05-30T02:47:14.418Z,0
2017-05-30T02:48:14.479Z,0
2017-05-30T02:49:14.419Z,0
2017-05-30T02:50:13.508Z,0
2017-05-30T02:51:13.848Z,0
2017-05-30T02:52:14.414Z,0
2017-05-30T02:53:14.109Z,0
2017-05-30T02:54:14.410Z,0
2017-05-30T02:55:14.103Z,0
2017-05-30T02:56:14.411Z,0
2017-05-30T02:57:14.103Z,0
2017-05-30T02:58:14.409Z,0
2017-05-30T02:59:14.101Z,0
2017-05-30T03:00:14.106Z,0
2017-05-30T03:01:14.103Z,0
2017-05-30T03:02:14.412Z,0
2017-05-30T03:03:14.100Z,0
2017-05-30T03:04:13.799Z,0
2017-05-30T03:05:14.103Z,0
2017-05-30T03:06:14.152Z,0
2017-05-30T03:07:13.797Z,0
2017-05-30T03:08:14.411Z,0
2017-05-30T03:09:14.411Z,0
2017-05-30T03:10:14.405Z,0
2017-05-30T03:11:14.411Z,0
2017-05-30T03:12:14.098Z,0
2017-05-30T03:13:14.098Z,0
2017-05-30T03:14:14.104Z,0
2017-05-30T03:15:14.407Z,0
2017-05-30T03:16:13.485Z,0
2017-05-30T03:17:13.792Z,0
2017-05-30T03:18:14.419Z,0
2017-05-30T03:19:13.795Z,0
2017-05-30T03:20:13.493Z,0
2017-05-30T03:21:14.150Z,0
2017-05-30T03:22:14.101Z,0
2017-05-30T03:23:14.097Z,0
2017-05-30T03:24:14.103Z,0
2017-05-30T03:25:14.100Z,0
2017-05-30T03:26:14.100Z,0
2017-05-30T03:27:14.095Z,0
2017-05-30T03:28:14.404Z,0
2017-05-30T03:29:14.399Z,0
2017-05-30T03:30:14.401Z,0
2017-05-30T03:31:14.424Z,0
2017-05-30T03:32:14.401Z,0
2017-05-30T03:33:14.092Z,0
2017-05-30T03:34:14.399Z,0
2017-05-30T03:35:14.091Z,0
2017-05-30T03:36:14.090Z,0
2017-05-30T03:37:14.394Z,0
2017-05-30T03:38:14.089Z,0
2017-05-30T03:39:14.393Z,5
2017-05-30T03:40:14.088Z,5
2017-05-30T03:41:14.445Z,5
2017-05-30T03:42:14.087Z,5
2017-05-30T03:43:14.096Z,5
2017-05-30T03:44:13.786Z,5
2017-05-30T03:45:14.086Z,5
2017-05-30T03:46:14.086Z,5
2017-05-30T03:47:14.086Z,5
2017-05-30T03:48:14.391Z,5
2017-05-30T03:49:14.090Z,5
2017-05-30T03:50:13.474Z,5
2017-05-30T03:51:14.088Z,5
2017-05-30T03:52:14.399Z,5
2017-05-30T03:53:13.779Z,5
2017-05-30T03:54:14.389Z,5
2017-05-30T03:55:14.397Z,5
2017-05-30T03:56:14.087Z,5
2017-05-30T03:57:14.448Z,5
2017-05-30T03:58:14.084Z,5
2017-05-30T03:59:13.773Z,5
2017-05-30T04:00:14.389Z,5
2017-05-30T04:01:14.391Z,10
2017-05-30T04:02:13.772Z,10
2017-05-30T04:03:14.389Z,10
2017-05-30T04:04:14.386Z,10
2017-05-30T04:05:14.389Z,10
2017-05-30T04:06:14.383Z,10
2017-05-30T04:07:14.383Z,10
2017-05-30T04:08:14.078Z,10
2017-05-30T04:09:14.382Z,10
2017-05-30T04:10:14.079Z,10
2017-05-30T04:11:13.771Z,10
2017-05-30T04:12:13.819Z,10
2017-05-30T04:13:14.076Z,10
2017-05-30T04:14:14.384Z,10
2017-05-30T04:15:13.771Z,15
2017-05-30T04:16:13.768Z,15
2017-05-30T04:17:14.388Z,15
2017-05-30T04:18:13.465Z,15
2017-05-30T04:19:14.074Z,15
2017-05-30T04:20:13.775Z,20
2017-05-30T04:21:14.382Z,25
2017-05-30T04:22:14.070Z,25
2017-05-30T04:23:13.768Z,25
2017-05-30T04:24:14.376Z,25
2017-05-30T04:25:14.378Z,25
2017-05-30T04:26:14.375Z,25
2017-05-30T04:27:14.121Z,25
2017-05-30T04:28:14.385Z,30
2017-05-30T04:29:14.382Z,30
2017-05-30T04:30:14.073Z,30
2017-05-30T04:31:14.376Z,40
2017-05-30T04:32:14.373Z,45
2017-05-30T04:33:14.376Z,50
2017-05-30T04:34:14.071Z,55
2017-05-30T04:35:13.766Z,60
2017-05-30T04:36:14.369Z,70
2017-05-30T04:37:14.375Z,70
2017-05-30T04:38:14.073Z,70
2017-05-30T04:39:13.771Z,70
2017-05-30T04:40:14.377Z,65
2017-05-30T04:41:14.072Z,75
2017-05-30T04:42:14.423Z,100
2017-05-30T04:43:14.374Z,105
2017-05-30T04:44:14.070Z,120
2017-05-30T04:45:14.380Z,140
2017-05-30T04:46:14.071Z,150
2017-05-30T04:47:14.375Z,150
2017-05-30T04:48:14.072Z,145
2017-05-30T04:49:14.386Z,150
2017-05-30T04:50:14.376Z,150
2017-05-30T04:51:14.382Z,155
2017-05-30T04:52:14.127Z,155
2017-05-30T04:53:14.380Z,165
2017-05-30T04:54:14.375Z,170
2017-05-30T04:55:14.376Z,165
2017-05-30T04:56:14.074Z,170
2017-05-30T04:57:14.078Z,170
2017-05-30T04:58:13.776Z,175
2017-05-30T04:59:14.077Z,180
2017-05-30T05:00:14.383Z,185
2017-05-30T05:01:14.388Z,185
2017-05-30T05:02:14.086Z,195
2017-05-30T05:03:14.142Z,200
2017-05-30T05:04:14.087Z,205
2017-05-30T05:05:14.144Z,210
2017-05-30T05:06:14.082Z,215
2017-05-30T05:07:14.135Z,225
2017-05-30T05:08:14.094Z,230
2017-05-30T05:09:14.398Z,240
2017-05-30T05:10:14.095Z,240
2017-05-30T05:11:14.098Z,245
2017-05-30T05:12:13.792Z,245
2017-05-30T05:13:14.153Z,245
2017-05-30T05:14:14.095Z,245
2017-05-30T05:15:13.794Z,245
2017-05-30T05:16:14.406Z,250
2017-05-30T05:17:14.406Z,250
2017-05-30T05:18:13.497Z,260
2017-05-30T05:19:13.801Z,265
2017-05-30T05:20:14.112Z,270
2017-05-30T05:21:14.414Z,285
2017-05-30T05:22:14.474Z,295
2017-05-30T05:23:14.122Z,295
2017-05-30T05:24:13.814Z,295
2017-05-30T05:25:14.430Z,295
2017-05-30T05:26:14.128Z,300
2017-05-30T05:27:14.438Z,305
2017-05-30T05:28:14.466Z,310
2017-05-30T05:29:14.435Z,320
2017-05-30T05:30:14.442Z,325
2017-05-30T05:31:13.828Z,335
2017-05-30T05:32:14.141Z,345
2017-05-30T05:33:14.451Z,355
2017-05-30T05:34:14.158Z,380
2017-05-30T05:35:14.157Z,380
2017-05-30T05:36:14.462Z,385
2017-05-30T05:37:14.530Z,380
2017-05-30T05:38:14.468Z,375
2017-05-30T05:39:14.475Z,380
2017-05-30T05:40:14.228Z,390
2017-05-30T05:41:14.180Z,400
2017-05-30T05:42:13.946Z,410
2017-05-30T05:43:14.495Z,410
2017-05-30T05:44:14.512Z,415
2017-05-30T05:45:14.205Z,425
2017-05-30T05:46:14.194Z,430
2017-05-30T05:47:14.198Z,435
2017-05-30T05:48:13.899Z,430
2017-05-30T05:49:14.519Z,435
2017-05-30T05:50:14.206Z,435
2017-05-30T05:51:14.214Z,445
2017-05-30T05:52:14.267Z,465
2017-05-30T05:53:14.531Z,470
2017-05-30T05:54:14.231Z,475
2017-05-30T05:55:13.931Z,475
2017-05-30T05:56:14.544Z,480
2017-05-30T05:57:14.245Z,500
2017-05-30T05:58:14.253Z,505
2017-05-30T05:59:14.257Z,505
2017-05-30T06:00:13.952Z,515
2017-05-30T06:01:14.278Z,510
2017-05-30T06:02:14.268Z,515
2017-05-30T06:03:14.276Z,520
2017-05-30T06:04:14.278Z,515
2017-05-30T06:05:14.282Z,520
2017-05-30T06:06:14.593Z,525
2017-05-30T06:07:14.343Z,535
2017-05-30T06:08:14.302Z,550
2017-05-30T06:09:13.995Z,565
2017-05-30T06:10:14.313Z,570
2017-05-30T06:11:14.313Z,570
2017-05-30T06:12:14.319Z,575
2017-05-30T06:13:14.330Z,585
2017-05-30T06:14:14.335Z,595
2017-05-30T06:15:13.725Z,590
2017-05-30T06:16:14.347Z,585
2017-05-30T06:17:14.400Z,610
2017-05-30T06:18:14.349Z,620
2017-05-30T06:19:14.361Z,600
2017-05-30T06:20:14.360Z,610
2017-05-30T06:21:14.063Z,620
2017-05-30T06:22:14.371Z,635
2017-05-30T06:23:14.377Z,640
2017-05-30T06:24:14.393Z,640
2017-05-30T06:25:14.393Z,645
2017-05-30T06:26:14.394Z,635
2017-05-30T06:27:14.456Z,650
2017-05-30T06:28:14.104Z,660
2017-05-30T06:29:14.725Z,670
2017-05-30T06:30:14.721Z,675
2017-05-30T06:31:14.422Z,660
2017-05-30T06:32:14.426Z,645
2017-05-30T06:33:14.125Z,645
2017-05-30T06:34:14.135Z,670
2017-05-30T06:35:14.751Z,665
2017-05-30T06:36:14.449Z,640
2017-05-30T06:37:14.506Z,645
2017-05-30T06:38:14.770Z,650
2017-05-30T06:39:14.163Z,655
2017-05-30T06:40:14.471Z,640
2017-05-30T06:41:14.530Z,635
2017-05-30T06:42:14.172Z,605
2017-05-30T06:43:14.184Z,565
2017-05-30T06:44:14.494Z,520
2017-05-30T06:45:14.496Z,530
2017-05-30T06:46:14.193Z,550
2017-05-30T06:47:14.197Z,545
2017-05-30T06:48:14.806Z,535
2017-05-30T06:49:14.508Z,520
2017-05-30T06:50:14.823Z,490
2017-05-30T06:51:14.518Z,465
2017-05-30T06:52:14.220Z,450
2017-05-30T06:53:14.840Z,440
2017-05-30T06:54:14.229Z,440
2017-05-30T06:55:14.534Z,425
2017-05-30T06:56:14.849Z,415
2017-05-30T06:57:14.283Z,410
2017-05-30T06:58:14.550Z,405
2017-05-30T06:59:14.552Z,395
2017-05-30T07:00:14.250Z,405
2017-05-30T07:01:13.948Z,460
2017-05-30T07:02:14.259Z,615
2017-05-30T07:03:14.871Z,780
2017-05-30T07:04:14.574Z,685
2017-05-30T07:05:14.574Z,440
2017-05-30T07:06:14.271Z,310
2017-05-30T07:07:14.279Z,305
2017-05-30T07:08:14.325Z,305
2017-05-30T07:09:14.285Z,300
2017-05-30T07:10:14.285Z,290
2017-05-30T07:11:14.902Z,275
2017-05-30T07:12:14.294Z,255
2017-05-30T07:13:14.298Z,245
2017-05-30T07:14:14.301Z,240
2017-05-30T07:15:14.671Z,235
2017-05-30T07:16:14.004Z,235
2017-05-30T07:17:14.616Z,235
2017-05-30T07:18:14.669Z,230
2017-05-30T07:19:14.932Z,230
2017-05-30T07:20:14.934Z,230
2017-05-30T07:21:14.321Z,225
2017-05-30T07:22:14.334Z,225
2017-05-30T07:23:14.328Z,225
2017-05-30T07:24:14.025Z,220
2017-05-30T07:25:14.944Z,220
2017-05-30T07:26:14.339Z,220
2017-05-30T07:27:14.342Z,220
2017-05-30T07:28:14.391Z,215
2017-05-30T07:29:14.654Z,215
2017-05-30T07:30:14.655Z,210
2017-05-30T07:31:14.357Z,210
2017-05-30T07:32:14.353Z,210
2017-05-30T07:33:14.358Z,205
2017-05-30T07:34:14.359Z,205
2017-05-30T07:35:14.676Z,200
2017-05-30T07:36:14.675Z,200
2017-05-30T07:37:14.375Z,200
2017-05-30T07:38:14.686Z,195
2017-05-30T07:39:14.686Z,195
2017-05-30T07:40:14.688Z,200
2017-05-30T07:41:14.688Z,200
2017-05-30T07:42:14.390Z,190
2017-05-30T07:43:15.058Z,190
2017-05-30T07:44:15.005Z,190
2017-05-30T07:45:15.007Z,185
2017-05-30T07:46:14.704Z,185
2017-05-30T07:47:14.398Z,180
2017-05-30T07:48:15.013Z,180
2017-05-30T07:49:14.096Z,175
2017-05-30T07:50:14.405Z,170
2017-05-30T07:51:14.717Z,170
2017-05-30T07:52:14.413Z,165
2017-05-30T07:53:14.782Z,160
2017-05-30T07:54:14.727Z,160
2017-05-30T07:55:14.729Z,155
2017-05-30T07:56:14.423Z,150
2017-05-30T07:57:14.428Z,145
2017-05-30T07:58:14.740Z,150
2017-05-30T07:59:14.738Z,145
2017-05-30T08:00:14.739Z,145
2017-05-30T08:01:15.047Z,140
2017-05-30T08:02:14.746Z,135
2017-05-30T08:03:15.105Z,135
2017-05-30T08:04:14.142Z,130
2017-05-30T08:05:15.056Z,130
2017-05-30T08:06:15.063Z,125
2017-05-30T08:07:14.455Z,125
2017-05-30T08:08:14.458Z,125
2017-05-30T08:09:14.765Z,120
2017-05-30T08:10:14.468Z,120
2017-05-30T08:11:14.763Z,115
2017-05-30T08:12:15.074Z,115
2017-05-30T08:13:15.132Z,115
2017-05-30T08:14:14.772Z,110
2017-05-30T08:15:14.774Z,110
2017-05-30T08:16:14.781Z,105
2017-05-30T08:17:14.783Z,110
2017-05-30T08:18:15.098Z,105
2017-05-30T08:19:15.093Z,105
2017-05-30T08:20:15.098Z,100
2017-05-30T08:21:14.181Z,100
2017-05-30T08:22:14.182Z,95
2017-05-30T08:23:14.229Z,95
2017-05-30T08:24:14.183Z,95
2017-05-30T08:25:15.105Z,95
2017-05-30T08:26:14.800Z,90
2017-05-30T08:27:15.107Z,90
2017-05-30T08:28:15.114Z,90
2017-05-30T08:29:15.185Z,90
2017-05-30T08:30:14.811Z,90
2017-05-30T08:31:14.204Z,90
2017-05-30T08:32:14.198Z,90
2017-05-30T08:33:14.251Z,90
2017-05-30T08:34:14.815Z,90
2017-05-30T08:35:14.201Z,90
2017-05-30T08:36:13.957Z,90
2017-05-30T08:37:14.274Z,85
2017-05-30T08:38:15.130Z,85
2017-05-30T08:39:15.136Z,85
2017-05-30T08:40:14.219Z,85
2017-05-30T08:41:15.134Z,85
2017-05-30T08:42:14.522Z,80
2017-05-30T08:43:14.583Z,80
2017-05-30T08:44:14.541Z,80
2017-05-30T08:45:15.144Z,80
2017-05-30T08:46:14.841Z,80
2017-05-30T08:47:14.536Z,80
2017-05-30T08:48:15.157Z,80
2017-05-30T08:49:14.841Z,80
2017-05-30T08:50:14.847Z,80
2017-05-30T08:51:14.855Z,80
2017-05-30T08:52:14.859Z,80
2017-05-30T08:53:15.214Z,80
2017-05-30T08:54:14.909Z,80
2017-05-30T08:55:14.557Z,80
2017-05-30T08:56:15.164Z,80
2017-05-30T08:57:14.863Z,80
2017-05-30T08:58:14.602Z,80
2017-05-30T08:59:14.862Z,75
2017-05-30T09:00:14.857Z,75
2017-05-30T09:01:15.175Z,75
2017-05-30T09:02:15.167Z,75
2017-05-30T09:03:14.870Z,75
2017-05-30T09:04:14.877Z,75
2017-05-30T09:05:14.559Z,75
2017-05-30T09:06:14.869Z,75
2017-05-30T09:07:14.564Z,75
2017-05-30T09:08:14.576Z,75
2017-05-30T09:09:14.881Z,75
2017-05-30T09:10:14.576Z,75
2017-05-30T09:11:15.183Z,75
2017-05-30T09:12:14.262Z,75
2017-05-30T09:13:14.320Z,75
2017-05-30T09:14:14.574Z,75
2017-05-30T09:15:14.578Z,70
2017-05-30T09:16:14.578Z,70
2017-05-30T09:17:14.281Z,70
2017-05-30T09:18:14.274Z,70
2017-05-30T09:19:14.890Z,70
2017-05-30T09:20:14.585Z,70
2017-05-30T09:21:14.902Z,70
2017-05-30T09:22:14.893Z,70
2017-05-30T09:23:14.643Z,70
2017-05-30T09:24:14.594Z,70
2017-05-30T09:25:15.209Z,70
2017-05-30T09:26:13.977Z,70
2017-05-30T09:27:14.594Z,70
2017-05-30T09:28:15.214Z,70
2017-05-30T09:29:14.596Z,65
2017-05-30T09:30:15.211Z,65
2017-05-30T09:31:14.907Z,65
2017-05-30T09:32:15.214Z,65
2017-05-30T09:33:14.955Z,65
2017-05-30T09:34:14.911Z,65
2017-05-30T09:35:14.917Z,65
2017-05-30T09:36:14.912Z,65
2017-05-30T09:37:14.913Z,65
2017-05-30T09:38:14.611Z,65
2017-05-30T09:39:15.224Z,65
2017-05-30T09:40:14.921Z,65
2017-05-30T09:41:15.232Z,65
2017-05-30T09:42:14.979Z,65
2017-05-30T09:43:14.312Z,65
2017-05-30T09:44:14.618Z,70
2017-05-30T09:45:15.231Z,70
2017-05-30T09:46:14.931Z,75
2017-05-30T09:47:14.928Z,75
2017-05-30T09:48:14.672Z,75
2017-05-30T09:49:14.623Z,75
2017-05-30T09:50:14.932Z,70
2017-05-30T09:51:14.687Z,70
2017-05-30T09:52:14.934Z,70
2017-05-30T09:53:14.630Z,70
2017-05-30T09:54:14.939Z,75
2017-05-30T09:55:14.935Z,75
2017-05-30T09:56:14.632Z,75
2017-05-30T09:57:14.945Z,75
2017-05-30T09:58:14.322Z,80
2017-05-30T09:59:14.939Z,80
2017-05-30T10:00:14.646Z,80
2017-05-30T10:01:14.646Z,80
2017-05-30T10:02:15.254Z,75
2017-05-30T10:03:15.303Z,75
2017-05-30T10:04:14.952Z,70
2017-05-30T10:05:14.950Z,70
2017-05-30T10:06:14.643Z,65
2017-05-30T10:07:15.257Z,65
2017-05-30T10:08:15.258Z,65
2017-05-30T10:09:14.646Z,65
2017-05-30T10:10:14.652Z,60
2017-05-30T10:11:14.651Z,60
2017-05-30T10:12:14.958Z,60
2017-05-30T10:13:14.086Z,60
2017-05-30T10:14:14.962Z,60
2017-05-30T10:15:14.962Z,60
2017-05-30T10:16:14.659Z,60
2017-05-30T10:17:14.661Z,60
2017-05-30T10:18:14.966Z,55
2017-05-30T10:19:14.973Z,55
2017-05-30T10:20:15.275Z,55
2017-05-30T10:21:14.663Z,55
2017-05-30T10:22:14.969Z,55
2017-05-30T10:23:14.719Z,55
2017-05-30T10:24:14.670Z,55
2017-05-30T10:25:14.974Z,55
2017-05-30T10:26:14.671Z,55
2017-05-30T10:27:15.279Z,55
2017-05-30T10:28:14.977Z,55
2017-05-30T10:29:14.675Z,55
2017-05-30T10:30:14.978Z,55
2017-05-30T10:31:14.671Z,55
